createdAt,value
2022-11-02T00:01:42.564Z,100167.66
2022-11-02T00:06:44.754Z,100175.44
2022-11-02T00:11:46.438Z,100167.06
2022-11-02T00:16:48.239Z,100167.66
2022-11-02T00:21:49.924Z,100176.44
2022-11-02T00:26:53.422Z,100184.97
2022-11-02T00:31:55.359Z,100186.47
2022-11-02T00:36:57.349Z,100192.13
2022-11-02T00:41:59.105Z,100185.38
2022-11-02T00:47:00.842Z,100198.22
2022-11-02T00:52:02.581Z,100192.16
2022-11-02T00:57:04.380Z,100193.56
2022-11-02T01:02:06.619Z,100186.69
2022-11-02T01:07:08.554Z,100185.13
2022-11-02T01:12:11.480Z,100189.63
2022-11-02T01:17:13.261Z,100186.69
2022-11-02T01:22:16.068Z,100196.22
2022-11-02T01:27:17.743Z,100174.88
2022-11-02T01:32:19.689Z,100182.88
2022-11-02T01:37:21.996Z,100163.16
2022-11-02T01:42:26.018Z,100168.38
2022-11-02T01:47:39.161Z,100172.56
2022-11-02T01:52:41.511Z,100171.28
2022-11-02T01:57:47.986Z,100175.78
2022-11-02T02:02:56.593Z,100175.00
2022-11-02T02:08:02.365Z,100167.97
2022-11-02T02:13:07.575Z,100162.63
2022-11-02T02:18:33.516Z,100160.47
2022-11-02T02:24:15.688Z,100165.00
2022-11-02T02:29:23.463Z,100166.94
2022-11-02T02:34:35.995Z,100166.06
2022-11-02T02:39:51.687Z,100162.66
2022-11-02T02:45:13.855Z,100165.88
2022-11-02T02:50:20.930Z,100173.94
2022-11-02T02:55:28.066Z,100164.88
2022-11-02T03:00:31.543Z,100165.94
2022-11-02T03:05:36.110Z,100170.97
2022-11-02T03:11:05.685Z,100176.94
2022-11-02T03:16:30.228Z,100181.44
2022-11-02T03:21:41.617Z,100171.97
2022-11-02T03:26:54.442Z,100175.25
2022-11-02T03:32:06.789Z,100169.28
2022-11-02T03:37:39.658Z,100175.38
2022-11-02T03:42:43.244Z,100189.69
2022-11-02T03:47:49.450Z,100191.63
2022-11-02T03:52:59.029Z,100202.19
2022-11-02T03:58:02.653Z,100197.28
2022-11-02T04:03:09.099Z,100193.66
2022-11-02T04:08:24.595Z,100191.72
2022-11-02T04:13:49.073Z,100187.00
2022-11-02T04:19:09.618Z,100190.31
2022-11-02T04:24:31.704Z,100194.00
2022-11-02T04:29:33.865Z,100189.03
2022-11-02T04:34:35.641Z,100187.34
2022-11-02T04:39:37.421Z,100189.63
2022-11-02T04:44:40.033Z,100185.47
2022-11-02T04:49:51.103Z,100174.81
2022-11-02T04:54:53.976Z,100179.06
2022-11-02T04:59:55.805Z,100181.69
2022-11-02T05:04:57.958Z,100179.81
2022-11-02T05:10:01.174Z,100187.63
2022-11-02T05:15:04.863Z,100185.53
2022-11-02T05:20:08.785Z,100196.03
2022-11-02T05:25:11.454Z,100186.44
2022-11-02T05:30:13.571Z,100183.94
2022-11-02T05:35:16.513Z,100196.06
2022-11-02T05:40:19.774Z,100188.03
2022-11-02T05:45:24.519Z,100193.22
2022-11-02T05:50:26.410Z,100188.47
2022-11-02T05:55:28.109Z,100193.34
2022-11-02T06:00:29.778Z,100191.53
2022-11-02T06:05:31.601Z,100186.78
2022-11-02T06:10:33.461Z,100199.53
2022-11-02T06:15:35.117Z,100200.84
2022-11-02T06:20:36.922Z,100215.72
2022-11-02T06:25:38.726Z,100217.66
2022-11-02T06:30:40.405Z,100219.13
2022-11-02T06:35:49.455Z,100224.00
2022-11-02T06:40:58.372Z,100227.09
2022-11-02T06:46:00.077Z,100206.22
2022-11-02T06:51:02.441Z,100212.13
2022-11-02T06:56:04.270Z,100211.31
2022-11-02T07:01:07.784Z,100229.03
2022-11-02T07:06:13.843Z,100241.28
2022-11-02T07:11:16.337Z,100247.94
2022-11-02T07:16:18.003Z,100239.63
2022-11-02T07:26:22.547Z,100246.94
2022-11-02T07:31:24.361Z,100247.69
2022-11-02T07:36:26.038Z,100231.25
2022-11-02T07:41:27.715Z,100228.03
2022-11-02T07:46:29.441Z,100226.03
2022-11-02T07:51:31.108Z,100229.16
2022-11-02T07:56:32.783Z,100233.78
2022-11-02T08:01:34.559Z,100230.88
2022-11-02T08:06:36.300Z,100226.28
2022-11-02T08:11:39.072Z,100222.72
2022-11-02T08:16:40.750Z,100235.88
2022-11-02T08:21:42.416Z,100229.41
2022-11-02T08:26:45.383Z,100243.53
2022-11-02T08:31:48.470Z,100250.19
2022-11-02T08:36:50.126Z,100247.03
2022-11-02T08:41:52.092Z,100243.69
2022-11-02T08:46:55.385Z,100249.44
2022-11-02T08:51:57.141Z,100247.47
2022-11-02T08:56:59.395Z,100251.09
2022-11-02T09:02:01.234Z,100256.56
2022-11-02T09:07:02.989Z,100250.28
2022-11-02T09:12:05.226Z,100260.03
2022-11-02T09:17:06.950Z,100260.97
2022-11-02T09:22:08.650Z,100272.31
2022-11-02T09:27:10.327Z,100266.38
2022-11-02T09:32:12.013Z,100270.91
2022-11-02T09:37:13.676Z,100279.34
2022-11-02T09:42:24.173Z,100275.66
2022-11-02T09:48:10.763Z,100294.78
2022-11-02T09:52:56.166Z,100299.53
2022-11-02T09:58:18.186Z,100302.56
2022-11-02T10:03:31.865Z,100297.59
2022-11-02T10:09:05.681Z,100303.84
2022-11-02T10:14:14.908Z,100292.94
2022-11-02T10:19:23.051Z,100303.75
2022-11-02T10:24:39.869Z,100294.25
2022-11-02T10:30:04.403Z,100279.66
2022-11-02T10:35:31.601Z,100287.38
2022-11-02T10:40:51.618Z,100268.88
2022-11-02T10:46:11.990Z,100280.94
2022-11-02T10:51:16.095Z,100286.13
2022-11-02T10:56:30.748Z,100281.78
2022-11-02T11:01:33.188Z,100292.00
2022-11-02T11:06:38.305Z,100275.19
2022-11-02T11:11:39.979Z,100289.25
2022-11-02T11:16:44.839Z,100279.25
2022-11-02T11:21:46.965Z,100276.69
2022-11-02T11:27:12.710Z,100304.88
2022-11-02T11:32:23.568Z,100288.50
2022-11-02T11:37:28.157Z,100294.16
2022-11-02T11:42:35.027Z,100306.44
2022-11-02T11:47:40.401Z,100298.06
2022-11-02T11:52:42.863Z,100298.06
2022-11-02T11:57:44.539Z,100291.31
2022-11-02T12:03:03.318Z,100279.22
2022-11-02T12:08:24.903Z,100285.47
2022-11-02T12:13:26.853Z,100291.88
2022-11-02T12:18:32.794Z,100282.31
2022-11-02T12:23:50.081Z,100279.84
2022-11-02T12:29:03.972Z,100276.66
2022-11-02T12:34:13.471Z,100274.09
2022-11-02T12:39:21.152Z,100275.63
2022-11-02T12:44:48.972Z,100264.94
2022-11-02T12:50:24.447Z,100260.38
2022-11-02T12:55:38.125Z,100264.53
2022-11-02T13:00:44.191Z,100274.19
2022-11-02T13:05:54.171Z,100273.38
2022-11-02T13:11:01.295Z,100274.47
2022-11-02T13:16:04.736Z,100269.13
2022-11-02T13:21:06.949Z,100278.50
2022-11-02T13:26:20.777Z,100285.41
2022-11-02T13:31:42.847Z,100283.19
2022-11-02T13:36:46.371Z,100286.78
2022-11-02T13:42:23.463Z,100286.06
2022-11-02T13:47:59.414Z,100292.00
2022-11-02T13:53:06.110Z,100289.50
2022-11-02T13:58:08.051Z,100296.81
2022-11-02T14:03:22.073Z,100297.19
2022-11-02T14:08:47.383Z,100300.03
2022-11-02T14:13:52.272Z,100287.06
2022-11-02T14:19:21.151Z,100290.59
2022-11-02T14:24:36.153Z,100282.97
2022-11-02T14:29:46.741Z,100283.59
2022-11-02T14:35:04.448Z,100278.56
2022-11-02T14:40:27.654Z,100272.66
2022-11-02T14:45:46.922Z,100267.91
2022-11-02T14:51:05.699Z,100270.22
2022-11-02T14:56:08.224Z,100285.53
2022-11-02T15:01:14.768Z,100296.88
2022-11-02T15:06:25.549Z,100288.53
2022-11-02T15:12:21.275Z,100290.50
2022-11-02T15:17:24.263Z,100283.25
2022-11-02T15:22:34.575Z,100283.94
2022-11-02T15:27:37.928Z,100288.41
2022-11-02T15:32:47.811Z,100295.06
2022-11-02T15:38:16.592Z,100311.69
2022-11-02T15:43:37.868Z,100314.31
2022-11-02T15:48:53.205Z,100328.47
2022-11-02T15:54:13.616Z,100322.97
2022-11-02T15:59:17.992Z,100326.25
2022-11-02T16:04:21.496Z,100334.66
2022-11-02T16:09:37.926Z,100344.81
2022-11-02T16:14:40.719Z,100355.91
2022-11-02T16:19:42.384Z,100359.09
2022-11-02T16:24:47.231Z,100355.53
2022-11-02T16:29:50.663Z,100358.28
2022-11-02T16:34:52.432Z,100370.78
2022-11-02T16:39:54.323Z,100377.66
2022-11-02T16:44:59.367Z,100367.41
2022-11-02T16:50:01.271Z,100379.59
2022-11-02T16:55:30.451Z,100390.91
2022-11-02T17:00:32.359Z,100399.72
2022-11-02T17:05:34.541Z,100409.63
2022-11-02T17:10:38.938Z,100410.44
2022-11-02T17:15:48.222Z,100422.91
2022-11-02T17:21:12.981Z,100423.81
2022-11-02T17:26:23.491Z,100410.22
2022-11-02T17:31:30.027Z,100408.56
2022-11-02T17:36:31.727Z,100407.09
2022-11-02T17:41:51.936Z,100416.03
2022-11-02T17:46:55.630Z,100417.16
2022-11-02T17:51:57.520Z,100409.81
2022-11-02T17:57:01.684Z,100425.16
2022-11-02T18:02:03.517Z,100424.91
2022-11-02T18:07:05.331Z,100434.16
2022-11-02T18:12:09.230Z,100431.38
2022-11-02T18:17:10.906Z,100426.56
2022-11-02T18:22:13.186Z,100421.47
2022-11-02T18:27:14.867Z,100412.44
2022-11-02T18:32:16.595Z,100417.66
2022-11-02T18:37:18.306Z,100399.94
2022-11-02T18:42:20.429Z,100410.94
2022-11-02T18:47:22.085Z,100408.41
2022-11-02T18:52:25.978Z,100404.09
2022-11-02T18:57:30.409Z,100401.75
2022-11-02T19:02:32.161Z,100407.72
2022-11-02T19:07:52.347Z,100415.53
2022-11-02T19:12:54.039Z,100419.78
2022-11-02T19:17:55.701Z,100417.03
2022-11-02T19:22:57.379Z,100423.75
2022-11-02T19:27:59.398Z,100419.66
2022-11-02T19:33:01.118Z,100418.44
2022-11-02T19:38:02.831Z,100419.34
2022-11-02T19:43:04.757Z,100404.81
2022-11-02T19:48:06.806Z,100409.94
2022-11-02T19:53:08.776Z,100417.59
2022-11-02T19:58:10.434Z,100406.53
2022-11-02T20:03:12.124Z,100415.28
2022-11-02T20:08:14.921Z,100419.34
2022-11-02T20:13:16.590Z,100426.59
2022-11-02T20:18:19.800Z,100424.63
2022-11-02T20:23:21.846Z,100430.41
2022-11-02T20:28:23.517Z,100428.66
2022-11-02T20:33:25.289Z,100436.31
2022-11-02T20:38:27.058Z,100448.88
2022-11-02T20:43:28.692Z,100452.09
2022-11-02T20:48:30.506Z,100444.31
2022-11-02T20:53:32.501Z,100455.16
2022-11-02T20:58:34.209Z,100451.25
2022-11-02T21:03:36.086Z,100459.41
2022-11-02T21:08:39.179Z,100465.66
2022-11-02T21:14:07.042Z,100459.03
2022-11-02T21:19:08.739Z,100460.38
2022-11-02T21:24:10.590Z,100460.50
2022-11-02T21:29:12.363Z,100459.31
2022-11-02T21:34:14.037Z,100452.66
2022-11-02T21:39:15.756Z,100469.03
2022-11-02T21:44:17.451Z,100460.75
2022-11-02T21:49:19.242Z,100468.75
2022-11-02T21:54:20.890Z,100466.56
2022-11-02T21:59:22.502Z,100465.00
2022-11-02T22:04:31.619Z,100463.53
2022-11-02T22:09:33.626Z,100455.81
2022-11-02T22:14:39.002Z,100455.94
2022-11-02T22:19:40.657Z,100448.91
2022-11-02T22:24:44.883Z,100448.78
2022-11-02T22:29:46.779Z,100444.03
2022-11-02T22:34:48.536Z,100449.03
2022-11-02T22:39:50.177Z,100446.13
2022-11-02T22:44:55.124Z,100443.69
2022-11-02T22:49:56.778Z,100438.25
2022-11-02T22:54:58.453Z,100446.38
2022-11-02T23:00:00.114Z,100445.28
2022-11-02T23:05:01.789Z,100448.41
2022-11-02T23:10:23.670Z,100447.44
2022-11-02T23:15:25.380Z,100446.00
2022-11-02T23:20:27.030Z,100447.06
2022-11-02T23:25:28.711Z,100446.22
2022-11-02T23:31:04.902Z,100446.31
2022-11-02T23:36:15.324Z,100453.66
2022-11-02T23:41:18.458Z,100443.00
2022-11-02T23:46:20.125Z,100437.94
2022-11-02T23:51:40.449Z,100435.28
2022-11-02T23:56:45.551Z,100420.91
